createdAt,value
2022-10-07T00:00:52.943Z,96090.25
2022-10-07T00:03:22.293Z,96097.97
2022-10-07T00:06:10.866Z,96093.72
2022-10-07T00:08:39.085Z,96090.09
2022-10-07T00:11:11.925Z,96081.03
2022-10-07T00:13:40.619Z,96075.69
2022-10-07T00:16:13.347Z,96086.81
2022-10-07T00:18:41.388Z,96077.47
2022-10-07T00:21:11.285Z,96084.00
2022-10-07T00:23:39.166Z,96077.50
2022-10-07T00:26:07.762Z,96076.13
2022-10-07T00:28:36.274Z,96081.41
2022-10-07T00:31:12.984Z,96083.66
2022-10-07T00:33:40.704Z,96063.88
2022-10-07T00:36:14.848Z,96072.63
2022-10-07T00:38:41.726Z,96068.66
2022-10-07T00:41:16.214Z,96064.31
2022-10-07T00:43:42.831Z,96054.53
2022-10-07T00:46:33.676Z,96050.19
2022-10-07T00:49:04.105Z,96064.59
2022-10-07T00:51:33.345Z,96059.91
2022-10-07T00:54:02.488Z,96061.97
2022-10-07T00:56:29.912Z,96054.19
2022-10-07T00:58:59.003Z,96052.63
2022-10-07T01:01:26.616Z,96058.19
2022-10-07T01:03:54.347Z,96060.78
2022-10-07T01:06:21.053Z,96054.56
2022-10-07T01:08:52.863Z,96061.69
2022-10-07T01:12:04.057Z,96055.63
2022-10-07T01:15:01.231Z,96059.69
2022-10-07T01:17:52.524Z,96055.66
2022-10-07T01:20:19.107Z,96057.25
2022-10-07T01:23:18.970Z,96052.59
2022-10-07T01:26:21.031Z,96052.09
2022-10-07T01:29:17.962Z,96051.34
2022-10-07T01:32:01.577Z,96057.19
2022-10-07T01:34:28.591Z,96055.16
2022-10-07T01:36:59.551Z,96047.44
2022-10-07T01:39:32.488Z,96050.44
2022-10-07T01:41:59.732Z,96053.16
2022-10-07T01:44:30.386Z,96055.03
2022-10-07T01:46:58.668Z,96055.44
2022-10-07T01:49:25.615Z,96049.94
2022-10-07T01:52:04.944Z,96051.81
2022-10-07T01:54:47.363Z,96049.47
2022-10-07T01:57:20.018Z,96039.34
2022-10-07T02:00:05.843Z,96046.97
2022-10-07T02:02:53.122Z,96049.13
2022-10-07T02:05:32.814Z,96040.38
2022-10-07T02:08:39.643Z,96039.22
2022-10-07T02:11:06.277Z,96057.09
2022-10-07T02:13:47.300Z,96052.50
2022-10-07T02:16:25.620Z,96052.59
2022-10-07T02:18:53.705Z,96051.75
2022-10-07T02:21:25.666Z,96052.59
2022-10-07T02:23:54.765Z,96059.59
2022-10-07T02:26:23.116Z,96051.03
2022-10-07T02:28:52.925Z,96056.34
2022-10-07T02:31:24.280Z,96049.78
2022-10-07T02:33:54.083Z,96060.31
2022-10-07T02:36:28.936Z,96058.69
2022-10-07T02:38:56.297Z,96067.63
2022-10-07T02:41:33.150Z,96067.97
2022-10-07T02:44:22.071Z,96071.50
2022-10-07T02:46:54.272Z,96054.25
2022-10-07T02:49:23.537Z,96048.38
2022-10-07T02:51:59.625Z,96054.47
2022-10-07T02:54:32.761Z,96059.97
2022-10-07T02:57:01.265Z,96068.66
2022-10-07T02:59:29.482Z,96067.97
2022-10-07T03:01:59.027Z,96062.81
2022-10-07T03:04:25.964Z,96073.94
2022-10-07T03:06:52.894Z,96066.66
2022-10-07T03:09:19.567Z,96074.09
2022-10-07T03:11:46.400Z,96069.44
2022-10-07T03:14:13.012Z,96064.22
2022-10-07T03:16:39.856Z,96068.03
2022-10-07T03:19:06.498Z,96083.03
2022-10-07T03:21:34.025Z,96075.47
2022-10-07T03:24:04.877Z,96062.50
2022-10-07T03:26:33.463Z,96070.06
2022-10-07T03:29:01.297Z,96067.66
2022-10-07T03:31:28.979Z,96057.50
2022-10-07T03:33:57.066Z,96063.63
2022-10-07T03:36:24.840Z,96065.53
2022-10-07T03:38:52.047Z,96067.19
2022-10-07T03:41:19.856Z,96061.41
2022-10-07T03:43:46.660Z,96068.44
2022-10-07T03:46:13.532Z,96063.03
2022-10-07T03:48:40.196Z,96067.44
2022-10-07T03:51:06.798Z,96062.84
2022-10-07T03:53:33.405Z,96053.88
2022-10-07T03:56:00.177Z,96058.94
2022-10-07T03:58:27.140Z,96067.34
2022-10-07T04:01:10.609Z,96064.22
2022-10-07T04:03:37.232Z,96061.53
2022-10-07T04:06:04.135Z,96076.56
2022-10-07T04:08:32.994Z,96071.84
2022-10-07T04:11:01.200Z,96067.31
2022-10-07T04:13:28.616Z,96068.88
2022-10-07T04:15:55.797Z,96062.69
2022-10-07T04:18:22.782Z,96071.84
2022-10-07T04:20:49.472Z,96063.28
2022-10-07T04:23:17.123Z,96070.50
2022-10-07T04:25:46.286Z,96073.53
2022-10-07T04:28:19.168Z,96061.91
2022-10-07T04:30:51.091Z,96073.78
2022-10-07T04:33:22.203Z,96070.53
2022-10-07T04:35:50.168Z,96074.03
2022-10-07T04:38:18.316Z,96060.03
2022-10-07T04:40:49.155Z,96058.34
2022-10-07T04:43:21.309Z,96062.81
2022-10-07T04:45:49.646Z,96061.16
2022-10-07T04:48:21.293Z,96059.63
2022-10-07T04:50:48.020Z,96074.38
2022-10-07T04:53:16.782Z,96073.91
2022-10-07T04:55:48.195Z,96065.66
2022-10-07T04:58:16.231Z,96083.47
2022-10-07T05:00:45.331Z,96071.53
2022-10-07T05:03:14.056Z,96071.72
2022-10-07T05:05:42.944Z,96082.94
2022-10-07T05:08:10.556Z,96068.31
2022-10-07T05:10:41.001Z,96079.28
2022-10-07T05:13:12.415Z,96069.75
2022-10-07T05:15:54.481Z,96074.44
2022-10-07T05:18:22.789Z,96087.13
2022-10-07T05:20:49.817Z,96086.66
2022-10-07T05:23:18.677Z,96091.53
2022-10-07T05:25:45.522Z,96088.00
2022-10-07T05:28:13.907Z,96092.53
2022-10-07T05:30:41.930Z,96081.13
2022-10-07T05:33:10.083Z,96076.81
2022-10-07T05:35:36.785Z,96082.25
2022-10-07T05:38:03.502Z,96094.91
2022-10-07T05:40:30.216Z,96089.78
2022-10-07T05:42:57.521Z,96092.06
2022-10-07T05:45:25.788Z,96086.59
2022-10-07T05:47:53.034Z,96098.66
2022-10-07T05:50:19.784Z,96090.66
2022-10-07T05:52:46.519Z,96090.13
2022-10-07T05:55:13.142Z,96088.56
2022-10-07T05:57:40.040Z,96091.44
2022-10-07T06:00:07.381Z,96101.97
2022-10-07T06:02:34.378Z,96103.47
2022-10-07T06:05:01.268Z,96106.34
2022-10-07T06:07:29.684Z,96109.78
2022-10-07T06:10:14.944Z,96111.00
2022-10-07T06:13:00.435Z,96119.03
2022-10-07T06:15:27.040Z,96114.06
2022-10-07T06:17:53.688Z,96117.63
2022-10-07T06:20:20.343Z,96118.69
2022-10-07T06:22:47.208Z,96110.75
2022-10-07T06:25:13.964Z,96121.44
2022-10-07T06:27:40.696Z,96128.00
2022-10-07T06:30:08.336Z,96126.47
2022-10-07T06:32:34.975Z,96130.72
2022-10-07T06:35:01.663Z,96131.91
2022-10-07T06:37:32.178Z,96135.13
2022-10-07T06:39:59.827Z,96128.59
2022-10-07T06:42:26.653Z,96116.41
2022-10-07T06:44:56.075Z,96127.22
2022-10-07T06:47:22.759Z,96118.81
2022-10-07T06:49:49.401Z,96128.16
2022-10-07T06:52:16.176Z,96132.09
2022-10-07T06:54:42.945Z,96129.50
2022-10-07T06:57:26.701Z,96124.47
2022-10-07T06:59:56.646Z,96124.56
2022-10-07T07:02:25.650Z,96105.75
2022-10-07T07:04:57.235Z,96116.25
2022-10-07T07:07:24.915Z,96119.22
2022-10-07T07:09:52.329Z,96126.63
2022-10-07T07:12:18.987Z,96127.78
2022-10-07T07:14:45.859Z,96125.78
2022-10-07T07:17:12.557Z,96115.97
2022-10-07T07:19:39.710Z,96116.72
2022-10-07T07:22:07.087Z,96119.06
2022-10-07T07:24:33.728Z,96115.59
2022-10-07T07:27:00.751Z,96114.94
2022-10-07T07:29:27.549Z,96112.78
2022-10-07T07:31:54.901Z,96104.19
2022-10-07T07:34:21.609Z,96112.16
2022-10-07T07:36:51.940Z,96113.66
2022-10-07T07:39:19.980Z,96105.47
2022-10-07T07:41:47.930Z,96075.56
2022-10-07T07:44:18.059Z,96088.56
2022-10-07T07:46:49.194Z,96094.66
2022-10-07T07:49:16.775Z,96040.72
2022-10-07T07:51:43.659Z,96067.16
2022-10-07T07:54:12.113Z,96097.94
2022-10-07T07:56:39.733Z,96054.16
2022-10-07T07:59:08.301Z,96020.59
2022-10-07T08:01:35.776Z,96029.16
2022-10-07T08:04:04.241Z,96053.50
2022-10-07T08:06:31.610Z,96040.53
2022-10-07T08:08:59.228Z,96085.22
2022-10-07T08:11:27.075Z,96086.81
2022-10-07T08:13:56.435Z,96077.44
2022-10-07T08:16:25.964Z,96064.38
2022-10-07T08:18:54.297Z,96058.41
2022-10-07T08:21:22.955Z,96069.66
2022-10-07T08:23:54.798Z,96054.31
2022-10-07T08:26:21.695Z,96061.47
2022-10-07T08:28:49.224Z,96056.97
2022-10-07T08:31:18.976Z,96046.72
2022-10-07T08:33:48.149Z,96031.13
2022-10-07T08:36:20.438Z,96055.75
2022-10-07T08:38:50.443Z,96051.75
2022-10-07T08:41:26.257Z,96050.81
2022-10-07T08:43:52.799Z,96031.13
2022-10-07T08:46:25.067Z,96059.91
2022-10-07T08:49:15.741Z,96046.88
2022-10-07T08:51:48.699Z,96035.38
2022-10-07T08:54:19.732Z,96009.53
2022-10-07T08:56:49.085Z,96032.00
2022-10-07T08:59:33.041Z,96039.50
2022-10-07T09:02:18.519Z,96034.75
2022-10-07T09:05:00.328Z,96043.91
2022-10-07T09:07:36.989Z,96013.63
2022-10-07T09:10:09.783Z,96020.44
2022-10-07T09:12:44.401Z,96010.91
2022-10-07T09:15:23.659Z,96023.06
2022-10-07T09:18:02.529Z,96021.19
2022-10-07T09:20:36.759Z,96012.66
2022-10-07T09:23:05.704Z,96005.63
2022-10-07T09:25:34.981Z,96011.38
2022-10-07T09:28:01.639Z,96006.28
2022-10-07T09:30:29.801Z,95997.41
2022-10-07T09:32:58.514Z,96002.88
2022-10-07T09:35:27.294Z,95964.13
2022-10-07T09:37:58.552Z,95987.91
2022-10-07T09:40:57.949Z,95987.00
2022-10-07T09:43:26.198Z,96001.88
2022-10-07T09:45:53.423Z,95993.72
2022-10-07T09:48:33.479Z,95946.47
2022-10-07T09:51:13.837Z,95974.66
2022-10-07T09:53:58.860Z,95967.22
2022-10-07T09:56:54.855Z,95975.28
2022-10-07T09:59:27.451Z,95982.56
2022-10-07T10:02:00.225Z,95951.22
2022-10-07T10:04:37.955Z,95968.31
2022-10-07T10:07:19.568Z,95959.59
2022-10-07T10:09:57.464Z,95953.00
2022-10-07T10:12:25.763Z,95937.94
2022-10-07T10:14:54.805Z,95949.84
2022-10-07T10:17:26.977Z,95937.41
2022-10-07T10:19:53.915Z,95953.22
2022-10-07T10:22:30.572Z,95943.31
2022-10-07T10:25:16.320Z,95928.44
2022-10-07T10:28:01.754Z,95892.06
2022-10-07T10:30:30.387Z,95893.50
2022-10-07T10:33:40.595Z,95941.38
2022-10-07T10:36:17.781Z,95941.75
2022-10-07T10:38:47.138Z,95932.78
2022-10-07T10:41:35.605Z,95918.50
2022-10-07T10:44:22.591Z,95909.09
2022-10-07T10:47:04.180Z,95916.63
2022-10-07T10:49:36.843Z,95916.06
2022-10-07T10:52:18.160Z,95903.78
2022-10-07T10:54:56.853Z,95912.84
2022-10-07T10:57:46.179Z,95908.06
2022-10-07T11:00:23.646Z,95899.06
2022-10-07T11:02:59.714Z,95899.31
2022-10-07T11:05:38.518Z,95900.94
2022-10-07T11:08:37.068Z,95882.97
2022-10-07T11:11:09.001Z,95872.41
2022-10-07T11:14:00.187Z,95885.63
2022-10-07T11:16:47.064Z,95877.72
2022-10-07T11:19:35.805Z,95878.97
2022-10-07T11:22:03.459Z,95873.78
2022-10-07T11:24:40.733Z,95864.22
2022-10-07T11:27:25.888Z,95880.06
2022-10-07T11:30:19.340Z,95870.00
2022-10-07T11:33:04.845Z,95869.78
2022-10-07T11:35:37.678Z,95859.94
2022-10-07T11:38:10.062Z,95866.00
2022-10-07T11:40:51.485Z,95853.91
2022-10-07T11:43:29.381Z,95856.22
2022-10-07T11:46:01.657Z,95852.94
2022-10-07T11:48:42.903Z,95846.38
2022-10-07T11:51:18.210Z,95857.72
2022-10-07T11:53:45.236Z,95845.38
2022-10-07T11:56:44.379Z,95849.91
2022-10-07T11:59:29.324Z,95831.78
2022-10-07T12:01:56.271Z,95841.09
2022-10-07T12:04:35.476Z,95847.38
2022-10-07T12:07:34.983Z,95836.81
2022-10-07T12:10:04.986Z,95836.06
2022-10-07T12:12:47.677Z,95841.34
2022-10-07T12:15:26.706Z,95849.91
2022-10-07T12:17:57.208Z,95832.53
2022-10-07T12:20:52.749Z,95834.81
2022-10-07T12:23:29.570Z,95835.28
2022-10-07T12:26:00.550Z,95847.41
2022-10-07T12:28:36.642Z,95836.84
2022-10-07T12:31:26.370Z,95837.56
2022-10-07T12:33:58.567Z,95838.09
2022-10-07T12:36:27.851Z,95829.03
2022-10-07T12:38:57.545Z,95830.03
2022-10-07T12:41:40.158Z,95824.72
2022-10-07T12:44:25.709Z,95830.78
2022-10-07T12:47:19.235Z,95830.00
2022-10-07T12:50:02.554Z,95808.25
2022-10-07T12:52:56.829Z,95810.31
2022-10-07T12:55:31.789Z,95815.34
2022-10-07T12:58:17.934Z,95813.84
2022-10-07T13:01:11.917Z,95813.84
2022-10-07T13:03:53.733Z,95803.03
2022-10-07T13:06:40.989Z,95810.13
2022-10-07T13:09:19.812Z,95811.88
2022-10-07T13:12:10.090Z,95799.81
2022-10-07T13:14:46.043Z,95808.00
2022-10-07T13:17:25.021Z,95800.00
2022-10-07T13:20:15.669Z,95798.22
2022-10-07T13:22:50.173Z,95795.38
2022-10-07T13:25:20.494Z,95800.75
2022-10-07T13:27:54.788Z,95798.97
2022-10-07T13:30:42.047Z,95790.63
2022-10-07T13:33:28.371Z,95790.63
2022-10-07T13:36:18.333Z,95788.16
2022-10-07T13:38:47.330Z,95795.66
2022-10-07T13:41:24.517Z,95799.19
2022-10-07T13:43:54.912Z,95784.69
2022-10-07T13:46:25.232Z,95791.72
2022-10-07T13:48:55.156Z,95778.69
2022-10-07T13:51:30.687Z,95797.31
2022-10-07T13:53:59.886Z,95799.06
2022-10-07T13:56:41.088Z,95785.19
2022-10-07T13:59:16.020Z,95781.91
2022-10-07T14:01:43.273Z,95786.41
2022-10-07T14:04:22.058Z,95788.44
2022-10-07T14:06:56.066Z,95785.09
2022-10-07T14:09:31.997Z,95785.91
2022-10-07T14:12:07.236Z,95782.38
2022-10-07T14:14:38.539Z,95778.13
2022-10-07T14:17:21.113Z,95772.88
2022-10-07T14:19:59.172Z,95766.38
2022-10-07T14:22:39.116Z,95779.94
2022-10-07T14:25:16.897Z,95762.00
2022-10-07T14:27:47.221Z,95775.50
2022-10-07T14:30:55.819Z,95770.09
2022-10-07T14:34:08.976Z,95784.84
2022-10-07T14:36:36.238Z,95763.63
2022-10-07T14:39:23.374Z,95767.69
2022-10-07T14:41:50.034Z,95761.63
2022-10-07T14:44:18.308Z,95771.84
2022-10-07T14:46:44.948Z,95778.59
2022-10-07T14:49:11.893Z,95753.59
2022-10-07T14:51:38.869Z,95771.28
2022-10-07T14:54:07.438Z,95769.88
2022-10-07T14:56:36.669Z,95772.56
2022-10-07T14:59:03.378Z,95762.97
2022-10-07T15:01:30.115Z,95775.75
2022-10-07T15:03:57.987Z,95776.06
2022-10-07T15:06:25.258Z,95776.91
2022-10-07T15:08:51.972Z,95766.38
2022-10-07T15:11:21.160Z,95768.97
2022-10-07T15:13:50.140Z,95770.03
2022-10-07T15:16:20.224Z,95765.44
2022-10-07T15:18:52.180Z,95765.81
2022-10-07T15:21:20.484Z,95779.47
2022-10-07T15:23:54.228Z,95778.69
2022-10-07T15:26:24.508Z,95767.41
2022-10-07T15:28:56.805Z,95768.75
2022-10-07T15:31:26.257Z,95771.88
2022-10-07T15:33:57.382Z,95771.66
2022-10-07T15:36:26.162Z,95792.66
2022-10-07T15:38:53.454Z,95770.97
2022-10-07T15:41:46.242Z,95775.09
2022-10-07T15:44:22.110Z,95781.75
2022-10-07T15:46:52.667Z,95758.84
2022-10-07T15:49:19.494Z,95775.41
2022-10-07T15:51:46.942Z,95778.09
2022-10-07T15:54:13.817Z,95778.50
2022-10-07T15:56:41.608Z,95781.16
2022-10-07T15:59:08.687Z,95773.59
2022-10-07T16:01:35.821Z,95780.53
2022-10-07T16:04:03.781Z,95782.72
2022-10-07T16:06:33.793Z,95785.38
2022-10-07T16:09:01.107Z,95782.34
2022-10-07T16:11:29.175Z,95794.09
2022-10-07T16:13:56.156Z,95783.91
2022-10-07T16:16:25.526Z,95794.59
2022-10-07T16:18:54.139Z,95799.63
2022-10-07T16:21:23.873Z,95788.63
2022-10-07T16:23:55.027Z,95805.69
2022-10-07T16:26:24.586Z,95810.59
2022-10-07T16:29:10.858Z,95807.56
2022-10-07T16:31:42.614Z,95798.75
2022-10-07T16:34:11.431Z,95799.69
2022-10-07T16:36:42.234Z,95814.81
2022-10-07T16:39:11.856Z,95808.75
2022-10-07T16:41:41.908Z,95820.25
2022-10-07T16:44:09.452Z,95831.59
2022-10-07T16:46:37.030Z,95834.09
2022-10-07T16:49:08.599Z,95825.22
2022-10-07T16:51:37.255Z,95828.72
2022-10-07T16:54:13.023Z,95824.19
2022-10-07T16:56:44.152Z,95827.19
2022-10-07T16:59:13.336Z,95836.03
2022-10-07T17:01:40.414Z,95835.22
2022-10-07T17:04:08.213Z,95828.97
2022-10-07T17:06:35.148Z,95836.09
2022-10-07T17:09:04.648Z,95838.41
2022-10-07T17:11:36.631Z,95847.06
2022-10-07T17:14:17.878Z,95829.56
2022-10-07T17:16:49.958Z,95829.59
2022-10-07T17:19:20.450Z,95835.09
2022-10-07T17:21:49.196Z,95840.31
2022-10-07T17:24:17.367Z,95840.88
2022-10-07T17:26:45.456Z,95829.59
2022-10-07T17:29:14.748Z,95829.06
2022-10-07T17:31:43.544Z,95833.31
2022-10-07T17:34:11.923Z,95833.63
2022-10-07T17:36:39.404Z,95830.41
2022-10-07T17:39:06.550Z,95830.56
2022-10-07T17:41:38.404Z,95831.19
2022-10-07T17:44:11.080Z,95828.91
2022-10-07T17:46:39.528Z,95821.50
2022-10-07T17:49:08.599Z,95835.69
2022-10-07T17:51:37.435Z,95836.28
2022-10-07T17:54:06.045Z,95839.31
2022-10-07T17:56:34.332Z,95811.94
2022-10-07T17:59:01.421Z,95832.16
2022-10-07T18:01:31.114Z,95834.94
2022-10-07T18:04:00.249Z,95833.28
2022-10-07T18:06:31.261Z,95831.34
2022-10-07T18:09:03.205Z,95831.41
2022-10-07T18:11:49.256Z,95838.56
2022-10-07T18:14:34.594Z,95823.66
2022-10-07T18:17:01.352Z,95838.09
2022-10-07T18:19:29.651Z,95837.34
2022-10-07T18:21:56.786Z,95838.56
2022-10-07T18:24:27.640Z,95839.63
2022-10-07T18:26:59.473Z,95843.28
2022-10-07T18:29:31.647Z,95849.03
2022-10-07T18:32:00.650Z,95852.25
2022-10-07T18:34:27.443Z,95850.41
2022-10-07T18:36:56.933Z,95841.56
2022-10-07T18:39:25.274Z,95850.69
2022-10-07T18:41:51.968Z,95836.25
2022-10-07T18:44:19.866Z,95836.94
2022-10-07T18:46:46.442Z,95842.75
2022-10-07T18:49:13.942Z,95834.84
2022-10-07T18:51:41.052Z,95828.50
2022-10-07T18:54:07.815Z,95830.50
2022-10-07T18:56:38.418Z,95834.88
2022-10-07T18:59:07.814Z,95842.63
2022-10-07T19:01:34.592Z,95840.94
2022-10-07T19:04:02.562Z,95847.00
2022-10-07T19:06:31.431Z,95844.91
2022-10-07T19:09:00.393Z,95829.53
2022-10-07T19:11:29.412Z,95845.22
2022-10-07T19:13:58.993Z,95839.13
2022-10-07T19:16:34.522Z,95835.81
2022-10-07T19:19:04.244Z,95843.72
2022-10-07T19:21:32.207Z,95849.78
2022-10-07T19:24:01.831Z,95838.81
2022-10-07T19:26:35.271Z,95848.09
2022-10-07T19:29:02.890Z,95853.63
2022-10-07T19:31:32.345Z,95847.34
2022-10-07T19:34:02.325Z,95852.75
2022-10-07T19:36:35.174Z,95853.56
2022-10-07T19:39:02.306Z,95850.00
2022-10-07T19:41:31.474Z,95855.31
2022-10-07T19:43:58.599Z,95852.34
2022-10-07T19:46:28.317Z,95845.09
2022-10-07T19:48:58.311Z,95838.06
2022-10-07T19:51:27.327Z,95840.22
2022-10-07T19:54:00.001Z,95840.91
2022-10-07T19:56:29.150Z,95847.91
2022-10-07T19:58:57.841Z,95848.16
2022-10-07T20:01:27.196Z,95847.78
2022-10-07T20:03:59.269Z,95840.09
2022-10-07T20:06:26.736Z,95836.34
2022-10-07T20:08:54.146Z,95840.50
2022-10-07T20:11:20.887Z,95840.72
2022-10-07T20:13:48.253Z,95844.19
2022-10-07T20:16:18.168Z,95837.06
2022-10-07T20:18:47.255Z,95844.50
2022-10-07T20:21:20.672Z,95840.88
2022-10-07T20:23:48.568Z,95829.03
2022-10-07T20:26:19.143Z,95838.09
2022-10-07T20:28:52.467Z,95842.03
2022-10-07T20:31:22.299Z,95813.75
2022-10-07T20:33:51.947Z,95834.06
2022-10-07T20:36:21.611Z,95840.22
2022-10-07T20:39:31.815Z,95839.13
2022-10-07T20:42:17.374Z,95829.47
2022-10-07T20:44:44.189Z,95828.34
2022-10-07T20:47:10.965Z,95825.63
2022-10-07T20:49:41.451Z,95816.41
2022-10-07T20:52:17.408Z,95825.72
2022-10-07T20:54:45.509Z,95835.44
2022-10-07T20:57:13.973Z,95826.06
2022-10-07T20:59:40.694Z,95811.16
2022-10-07T21:02:09.653Z,95823.69
2022-10-07T21:04:37.439Z,95821.34
2022-10-07T21:07:04.454Z,95817.47
2022-10-07T21:09:36.232Z,95801.25
2022-10-07T21:12:05.172Z,95822.00
2022-10-07T21:14:31.847Z,95820.03
2022-10-07T21:16:59.028Z,95815.66
2022-10-07T21:19:25.914Z,95809.56
2022-10-07T21:21:52.919Z,95815.09
2022-10-07T21:24:19.788Z,95810.78
2022-10-07T21:26:47.056Z,95812.97
2022-10-07T21:29:14.368Z,95823.34
2022-10-07T21:31:42.370Z,95817.38
2022-10-07T21:34:10.175Z,95821.03
2022-10-07T21:36:40.818Z,95824.03
2022-10-07T21:39:07.561Z,95820.47
2022-10-07T21:41:35.653Z,95818.94
2022-10-07T21:44:04.566Z,95817.63
2022-10-07T21:46:32.707Z,95807.88
2022-10-07T21:48:59.827Z,95804.75
2022-10-07T21:51:27.441Z,95801.72
2022-10-07T21:53:55.602Z,95800.03
2022-10-07T21:56:22.252Z,95805.34
2022-10-07T21:58:53.359Z,95801.72
2022-10-07T22:01:22.825Z,95794.00
2022-10-07T22:03:54.352Z,95786.34
2022-10-07T22:06:21.656Z,95796.66
2022-10-07T22:08:49.569Z,95798.13
2022-10-07T22:11:19.780Z,95792.28
2022-10-07T22:13:55.039Z,95789.50
2022-10-07T22:16:22.975Z,95796.34
2022-10-07T22:18:52.005Z,95785.63
2022-10-07T22:21:21.286Z,95795.19
2022-10-07T22:23:50.591Z,95795.22
2022-10-07T22:26:19.178Z,95799.38
2022-10-07T22:28:48.564Z,95803.50
2022-10-07T22:31:16.247Z,95798.25
2022-10-07T22:33:44.400Z,95799.25
2022-10-07T22:36:13.369Z,95784.63
2022-10-07T22:38:43.501Z,95795.00
2022-10-07T22:41:14.054Z,95790.19
2022-10-07T22:43:46.836Z,95793.44
2022-10-07T22:46:16.780Z,95775.47
2022-10-07T22:48:44.382Z,95782.97
2022-10-07T22:51:13.304Z,95777.22
2022-10-07T22:53:46.567Z,95775.44
2022-10-07T22:56:16.671Z,95783.41
2022-10-07T22:58:51.053Z,95763.03
2022-10-07T23:01:18.149Z,95781.63
2022-10-07T23:03:45.785Z,95782.00
2022-10-07T23:06:18.030Z,95765.25
2022-10-07T23:08:45.983Z,95771.06
2022-10-07T23:11:16.126Z,95763.22
2022-10-07T23:13:42.872Z,95768.66
2022-10-07T23:16:12.554Z,95769.63
2022-10-07T23:18:42.655Z,95761.56
2022-10-07T23:21:18.275Z,95769.09
2022-10-07T23:23:48.003Z,95769.91
2022-10-07T23:26:18.926Z,95776.75
2022-10-07T23:28:50.404Z,95767.94
2022-10-07T23:31:19.000Z,95762.28
2022-10-07T23:33:47.841Z,95750.88
2022-10-07T23:36:16.109Z,95763.81
2022-10-07T23:38:46.007Z,95758.94
2022-10-07T23:41:14.705Z,95762.66
2022-10-07T23:43:41.680Z,95756.78
2022-10-07T23:46:13.284Z,95746.47
2022-10-07T23:48:41.179Z,95737.84
2022-10-07T23:51:10.247Z,95744.25
2022-10-07T23:53:36.883Z,95738.69
2022-10-07T23:56:03.696Z,95729.13
2022-10-07T23:58:31.429Z,95736.41
